Time;durP1;ratioP1;P1;durP2;ratioP2;P2;SDS_P1;SDS_P2;PMS_P1;PMS_P2;Temp;Humidity;BMP_temperature;BMP_pressure;BME280_temperature;BME280_humidity;BME280_pressure;Samples;Min_cycle;Max_cycle;Signal;HPM_P1;HPM_P2
2023/01/22 00:03:19;;;;;;;18.95;7.90;;;-0.70;99.90;;;;;;21002577;28;20044;-76
2023/01/22 00:13:21;;;;;;;17.73;7.70;;;-0.80;99.90;;;;;;21011569;28;20066;-77
2023/01/22 00:23:23;;;;;;;19.90;8.38;;;-0.80;99.90;;;;;;21056325;28;20040;-77
2023/01/22 00:33:23;;;;;;;16.48;8.15;;;-1.10;99.90;;;;;;20981747;28;20054;-77
2023/01/22 00:43:24;;;;;;;12.38;6.35;;;-1.20;99.90;;;;;;20961073;28;20573;-77
2023/01/22 00:53:25;;;;;;;17.63;7.60;;;-1.10;99.90;;;;;;20998553;28;20088;-77
2023/01/22 01:03:26;;;;;;;27.42;11.80;;;-1.10;99.90;;;;;;20998646;28;20102;-77
2023/01/22 01:13:29;;;;;;;42.58;16.92;;;-1.20;99.90;;;;;;21010871;28;20020;-77
2023/01/22 01:23:30;;;;;;;39.22;15.95;;;-1.30;99.90;;;;;;21052965;28;20491;-78
2023/01/22 01:33:31;;;;;;;26.15;10.50;;;-1.20;99.90;;;;;;20997997;28;20070;-78
2023/01/22 01:43:33;;;;;;;22.05;10.25;;;-1.10;99.90;;;;;;20997303;28;20570;-77
2023/01/22 01:53:36;;;;;;;33.22;14.20;;;-1.20;99.90;;;;;;21047015;28;20444;-77
2023/01/22 02:03:38;;;;;;;40.50;18.27;;;-1.20;99.90;;;;;;20977262;28;20068;-77
2023/01/22 02:13:44;;;;;;;49.53;20.25;;;-1.40;99.90;;;;;;21001994;28;20480;-77
2023/01/22 02:23:45;;;;;;;51.22;20.77;;;-1.50;99.90;;;;;;20999142;28;20033;-77
2023/01/22 02:33:45;;;;;;;50.80;19.42;;;-1.50;99.90;;;;;;20994359;28;20511;-76
2023/01/22 02:43:47;;;;;;;48.97;20.33;;;-1.50;99.90;;;;;;20976877;28;20036;-76
2023/01/22 02:53:49;;;;;;;49.03;19.85;;;-1.60;99.90;;;;;;20975679;28;20170;-76
2023/01/22 03:03:54;;;;;;;47.00;19.65;;;-1.40;99.90;;;;;;20977736;28;20036;-76
2023/01/22 03:24:15;;;;;;;44.87;20.23;;;-1.40;99.90;;;;;;21008350;28;20034;-76
2023/01/22 03:34:18;;;;;;;39.50;18.05;;;-1.40;99.90;;;;;;20989717;28;20056;-76
2023/01/22 03:44:19;;;;;;;47.35;20.17;;;-1.30;99.90;;;;;;21008304;28;20026;-76
2023/01/22 03:54:21;;;;;;;48.45;19.88;;;-1.40;99.90;;;;;;20986166;28;20028;-75
2023/01/22 04:04:22;;;;;;;49.65;20.17;;;-1.40;99.90;;;;;;20984925;28;20379;-76
2023/01/22 04:14:24;;;;;;;43.40;18.00;;;-1.40;99.90;;;;;;20987754;28;20483;-76
2023/01/22 04:24:33;;;;;;;35.67;17.10;;;-1.40;99.90;;;;;;20901183;28;20035;-76
2023/01/22 04:34:35;;;;;;;38.08;17.10;;;-1.30;99.90;;;;;;20900783;28;20036;-76
2023/01/22 04:44:49;;;;;;;42.08;18.38;;;-1.20;99.90;;;;;;20906082;28;20079;-76
2023/01/22 04:54:50;;;;;;;44.33;18.40;;;-1.40;99.90;;;;;;20916702;28;20400;-76
2023/01/22 05:04:52;;;;;;;42.33;17.45;;;-1.40;99.90;;;;;;21014390;28;20126;-76
2023/01/22 05:14:53;;;;;;;36.47;17.33;;;-1.30;99.90;;;;;;21059240;28;20137;-76
2023/01/22 05:24:54;;;;;;;39.83;16.38;;;-1.20;99.90;;;;;;20982423;28;20042;-76
2023/01/22 05:34:55;;;;;;;43.17;17.25;;;-1.10;99.90;;;;;;20986007;28;20475;-76
2023/01/22 05:44:56;;;;;;;41.08;17.00;;;-1.10;99.90;;;;;;20976354;28;20094;-76
2023/01/22 05:55:00;;;;;;;39.90;16.80;;;-1.00;99.90;;;;;;20977051;28;20025;-76
2023/01/22 06:05:04;;;;;;;44.97;18.50;;;-1.10;99.90;;;;;;20959777;28;20035;-76
2023/01/22 06:15:07;;;;;;;42.28;18.38;;;-1.20;99.90;;;;;;20974849;28;20442;-76
2023/01/22 06:25:09;;;;;;;39.15;17.00;;;-1.10;99.90;;;;;;20957776;28;20064;-76
2023/01/22 06:35:32;;;;;;;39.83;18.48;;;-1.10;99.90;;;;;;20990315;28;20093;-77
2023/01/22 06:45:33;;;;;;;52.50;17.77;;;-1.10;99.90;;;;;;20972819;28;20033;-76
2023/01/22 06:55:38;;;;;;;38.13;16.88;;;-1.10;99.90;;;;;;20971839;28;20028;-76
2023/01/22 07:05:40;;;;;;;37.55;16.00;;;-1.10;99.90;;;;;;20972307;28;20115;-76
2023/01/22 07:15:42;;;;;;;34.83;15.32;;;-1.10;99.90;;;;;;20966435;28;20109;-75
2023/01/22 07:25:43;;;;;;;43.65;18.08;;;-1.10;99.90;;;;;;20906333;28;20033;-75
2023/01/22 07:35:53;;;;;;;44.33;18.08;;;-1.10;99.90;;;;;;20906620;28;20037;-76
2023/01/22 07:45:54;;;;;;;39.97;16.77;;;-1.10;99.90;;;;;;20919161;28;20054;-76
2023/01/22 07:55:54;;;;;;;39.83;17.35;;;-1.00;99.90;;;;;;20988907;28;20145;-75
2023/01/22 08:05:56;;;;;;;35.53;16.30;;;-0.90;99.90;;;;;;20996656;28;20025;-77
2023/01/22 08:15:56;;;;;;;44.13;16.27;;;-0.90;99.90;;;;;;21002754;28;20040;-76
2023/01/22 08:26:02;;;;;;;41.38;16.75;;;-0.90;99.90;;;;;;21001702;28;20483;-76
2023/01/22 08:36:04;;;;;;;39.30;16.30;;;-0.80;99.90;;;;;;21002388;28;20032;-76
2023/01/22 08:46:05;;;;;;;44.72;17.88;;;-0.70;99.90;;;;;;21000146;28;20032;-77
2023/01/22 08:56:06;;;;;;;42.35;18.13;;;-0.60;99.90;;;;;;20999141;28;20115;-76
2023/01/22 09:06:07;;;;;;;43.55;18.15;;;-0.70;99.90;;;;;;21006364;28;20028;-76
2023/01/22 09:16:11;;;;;;;52.88;21.00;;;-0.60;99.90;;;;;;20986599;28;20038;-77
2023/01/22 09:26:11;;;;;;;41.83;19.40;;;-0.70;99.90;;;;;;20999999;28;20040;-77
2023/01/22 09:36:15;;;;;;;40.97;17.67;;;-0.70;99.90;;;;;;21003064;28;20395;-77
2023/01/22 09:46:41;;;;;;;37.55;17.13;;;-0.40;99.90;;;;;;20986305;28;20491;-76
2023/01/22 09:56:51;;;;;;;40.67;18.33;;;0.10;99.90;;;;;;20977037;28;20398;-77
2023/01/22 10:06:55;;;;;;;37.13;16.38;;;0.20;99.90;;;;;;21026177;28;20036;-76
2023/01/22 10:17:02;;;;;;;35.40;15.25;;;0.80;99.90;;;;;;21012501;28;20526;-77
2023/01/22 10:27:17;;;;;;;26.50;12.50;;;2.20;99.90;;;;;;21051858;28;20032;-77
2023/01/22 10:37:18;;;;;;;27.55;12.38;;;3.10;99.90;;;;;;21030034;28;20027;-77
2023/01/22 10:47:22;;;;;;;34.22;15.02;;;2.70;99.90;;;;;;21031115;28;20025;-77
2023/01/22 10:57:32;;;;;;;27.13;13.77;;;1.80;99.90;;;;;;21034168;28;20077;-77
2023/01/22 11:07:33;;;;;;;44.67;18.93;;;1.60;99.90;;;;;;21012702;28;20028;-76
2023/01/22 11:17:38;;;;;;;42.28;18.20;;;1.60;99.90;;;;;;21017717;28;20037;-77
2023/01/22 11:27:50;;;;;;;42.42;17.08;;;1.40;99.90;;;;;;21033313;28;20076;-77
2023/01/22 11:38:09;;;;;;;36.25;15.73;;;0.90;99.90;;;;;;21014241;28;20046;-77
2023/01/22 11:48:17;;;;;;;36.60;17.35;;;1.10;99.90;;;;;;21044787;28;20024;-77
2023/01/22 11:58:36;;;;;;;33.35;14.80;;;1.00;99.90;;;;;;21013756;28;20028;-77
2023/01/22 12:08:40;;;;;;;35.00;13.45;;;1.10;99.90;;;;;;20997967;28;20454;-76
2023/01/22 12:18:43;;;;;;;25.17;10.40;;;1.30;99.90;;;;;;21001040;28;20495;-77
2023/01/22 12:28:55;;;;;;;26.75;13.10;;;1.30;99.90;;;;;;20988917;28;20032;-77
2023/01/22 12:38:58;;;;;;;31.63;15.00;;;1.30;99.90;;;;;;20997275;28;20039;-76
2023/01/22 12:49:05;;;;;;;26.23;10.95;;;1.00;99.90;;;;;;20995183;28;20029;-77
2023/01/22 12:59:28;;;;;;;26.60;12.75;;;0.90;99.90;;;;;;20998915;28;20031;-77
2023/01/22 13:09:35;;;;;;;29.95;11.93;;;0.90;99.90;;;;;;20987473;28;20107;-76
2023/01/22 13:19:40;;;;;;;25.90;11.35;;;1.00;99.90;;;;;;20974803;28;20035;-75
2023/01/22 13:29:44;;;;;;;23.52;10.82;;;1.00;99.90;;;;;;21019363;28;20040;-77
2023/01/22 13:39:45;;;;;;;22.08;10.75;;;1.00;99.90;;;;;;21005945;28;20054;-76
2023/01/22 13:49:46;;;;;;;25.73;11.52;;;1.00;99.90;;;;;;20999333;28;20128;-77
2023/01/22 13:59:55;;;;;;;20.77;9.63;;;0.80;99.90;;;;;;21013173;28;20075;-75
2023/01/22 14:09:57;;;;;;;19.05;9.98;;;0.80;99.90;;;;;;21001859;28;20029;-77
2023/01/22 14:19:59;;;;;;;23.90;9.65;;;0.90;99.90;;;;;;20995672;28;20063;-77
2023/01/22 14:29:59;;;;;;;24.88;11.60;;;0.80;99.90;;;;;;20997672;28;20073;-76
2023/01/22 14:40:00;;;;;;;23.88;11.43;;;0.70;99.90;;;;;;21002046;28;20041;-78
2023/01/22 14:50:02;;;;;;;21.70;11.23;;;0.70;99.90;;;;;;20980065;28;20388;-78
2023/01/22 15:00:04;;;;;;;26.45;12.63;;;0.60;99.90;;;;;;20997851;28;20029;-78
2023/01/22 15:10:07;;;;;;;27.65;11.65;;;0.60;99.90;;;;;;20999818;28;20090;-77
2023/01/22 15:20:09;;;;;;;25.02;11.68;;;0.60;99.90;;;;;;21009217;28;20028;-77
2023/01/22 15:30:11;;;;;;;36.85;15.60;;;0.60;99.90;;;;;;21008974;28;20036;-77
2023/01/22 15:40:13;;;;;;;26.23;12.35;;;0.60;99.90;;;;;;20983668;28;20036;-77
2023/01/22 15:50:18;;;;;;;23.42;11.10;;;0.60;99.90;;;;;;20984288;28;20024;-78
2023/01/22 16:00:20;;;;;;;22.25;10.32;;;0.60;99.90;;;;;;21000078;28;20029;-76
2023/01/22 16:10:21;;;;;;;27.55;11.52;;;0.70;99.90;;;;;;20993536;28;20510;-75
2023/01/22 16:20:22;;;;;;;23.35;10.88;;;0.70;99.90;;;;;;20992372;28;20105;-77
2023/01/22 16:30:23;;;;;;;30.27;13.05;;;0.50;99.90;;;;;;20975278;28;20033;-76
2023/01/22 16:40:24;;;;;;;31.20;14.07;;;0.50;99.90;;;;;;21001991;28;20052;-76
2023/01/22 16:50:25;;;;;;;25.60;13.18;;;0.60;99.90;;;;;;20996602;28;20025;-75
2023/01/22 17:00:25;;;;;;;26.75;11.48;;;0.50;99.90;;;;;;20995352;28;20733;-75
2023/01/22 17:10:26;;;;;;;29.38;13.38;;;0.40;99.90;;;;;;20992453;28;20056;-75
2023/01/22 17:20:27;;;;;;;17.05;7.57;;;0.40;99.90;;;;;;20987274;28;20372;-77
2023/01/22 17:30:28;;;;;;;15.85;7.00;;;0.40;99.90;;;;;;20997549;28;20025;-76
2023/01/22 17:40:29;;;;;;;18.13;8.80;;;0.50;99.90;;;;;;20995754;28;20048;-76
2023/01/22 17:50:30;;;;;;;12.60;6.85;;;0.50;99.90;;;;;;20999629;28;20028;-76
2023/01/22 18:00:31;;;;;;;16.02;8.02;;;0.50;99.90;;;;;;21039304;28;20118;-76
2023/01/22 18:10:32;;;;;;;12.63;6.05;;;0.40;99.90;;;;;;20977631;28;20491;-77
2023/01/22 18:20:33;;;;;;;13.35;6.47;;;0.30;99.90;;;;;;20988966;28;20047;-76
2023/01/22 18:30:34;;;;;;;10.18;4.90;;;0.30;99.90;;;;;;20988814;28;20024;-78
2023/01/22 18:40:35;;;;;;;19.23;8.35;;;0.20;99.90;;;;;;20990059;28;20178;-77
2023/01/22 18:50:36;;;;;;;81.53;22.75;;;0.30;99.90;;;;;;20990559;28;20522;-76
2023/01/22 19:00:37;;;;;;;20.48;9.20;;;0.40;99.90;;;;;;20935191;28;20540;-78
2023/01/22 19:10:38;;;;;;;31.75;12.65;;;0.40;99.90;;;;;;20987690;28;20051;-78
2023/01/22 19:20:39;;;;;;;11.70;6.95;;;0.40;99.90;;;;;;20993989;28;20103;-75
2023/01/22 19:30:40;;;;;;;14.20;7.10;;;0.30;99.90;;;;;;20994510;28;20025;-77
2023/01/22 19:40:43;;;;;;;14.63;6.57;;;0.40;99.90;;;;;;20991605;28;20522;-77
2023/01/22 19:50:44;;;;;;;14.15;7.03;;;0.40;99.90;;;;;;20990232;28;20488;-76
2023/01/22 20:00:45;;;;;;;11.02;5.47;;;0.30;99.90;;;;;;20988141;28;20040;-78
2023/01/22 20:10:49;;;;;;;11.68;5.30;;;0.20;99.90;;;;;;21022072;28;20496;-77
2023/01/22 20:20:52;;;;;;;12.18;5.97;;;0.20;99.90;;;;;;21007536;28;20033;-77
2023/01/22 20:31:05;;;;;;;13.45;7.43;;;0.20;99.90;;;;;;21065065;28;20028;-77
2023/01/22 20:41:08;;;;;;;12.45;6.38;;;0.20;99.90;;;;;;21046376;28;20028;-77
2023/01/22 20:51:12;;;;;;;14.35;7.10;;;0.20;99.90;;;;;;20999523;28;20514;-76
2023/01/22 21:01:17;;;;;;;18.73;9.38;;;0.10;99.90;;;;;;20999017;28;20037;-77
2023/01/22 21:11:19;;;;;;;16.33;7.78;;;0.10;99.90;;;;;;21003726;28;20035;-76
2023/01/22 21:21:20;;;;;;;15.35;6.85;;;0.10;99.90;;;;;;20999251;28;20131;-77
2023/01/22 21:31:22;;;;;;;17.70;9.48;;;0.10;99.90;;;;;;21000394;28;20459;-77
2023/01/22 21:41:23;;;;;;;12.32;6.80;;;0.20;99.90;;;;;;20981941;28;20041;-77
2023/01/22 21:51:28;;;;;;;11.80;6.70;;;0.10;99.90;;;;;;21003311;28;20048;-77
2023/01/22 22:01:30;;;;;;;15.63;7.95;;;0.10;99.90;;;;;;20986916;28;20036;-77
2023/01/22 22:11:32;;;;;;;11.65;6.20;;;0.20;99.90;;;;;;20908733;28;20036;-77
2023/01/22 22:21:33;;;;;;;14.07;7.03;;;0.20;99.90;;;;;;20911085;28;20040;-77
2023/01/22 22:31:35;;;;;;;13.77;7.28;;;0.20;99.90;;;;;;20911329;28;20078;-76
2023/01/22 22:41:37;;;;;;;13.73;7.43;;;0.00;99.90;;;;;;20910106;28;20048;-77
2023/01/22 22:51:40;;;;;;;15.50;7.20;;;0.10;99.90;;;;;;20902655;28;20112;-76
2023/01/22 23:01:41;;;;;;;19.77;8.35;;;0.10;99.90;;;;;;20892953;28;20492;-77
2023/01/22 23:11:42;;;;;;;17.42;7.85;;;0.00;99.90;;;;;;20899591;28;20056;-76
2023/01/22 23:21:44;;;;;;;17.67;8.45;;;0.00;99.90;;;;;;20907211;28;20044;-77
2023/01/22 23:31:45;;;;;;;16.00;8.00;;;0.00;99.90;;;;;;20911408;28;20033;-76
2023/01/22 23:41:46;;;;;;;24.58;10.35;;;0.00;99.90;;;;;;20923746;28;20051;-76
2023/01/22 23:51:46;;;;;;;20.60;7.55;;;0.00;99.90;;;;;;20922221;28;20033;-76
